Time;durP1;ratioP1;P1;durP2;ratioP2;P2;SDS_P1;SDS_P2;PMS_P1;PMS_P2;Temp;Humidity;BMP_temperature;BMP_pressure;BME280_temperature;BME280_humidity;BME280_pressure;Samples;Min_cycle;Max_cycle;Signal;HPM_P1;HPM_P2
2023/03/02 00:01:08;;;;;;;24.40;13.30;;;1.90;92.20;;;;;;2085773;28;20219;-64
2023/03/02 00:02:17;;;;;;;24.95;12.77;;;2.00;92.20;;;;;;2073327;28;20244;-64
2023/03/02 00:03:21;;;;;;;23.90;12.85;;;2.00;92.10;;;;;;2077757;28;20766;-64
2023/03/02 00:04:29;;;;;;;21.10;11.68;;;1.90;92.00;;;;;;2085463;28;20187;-64
2023/03/02 00:05:34;;;;;;;24.27;12.45;;;1.80;92.20;;;;;;2076832;28;20200;-64
2023/03/02 00:06:39;;;;;;;23.80;12.07;;;1.90;92.40;;;;;;2065683;28;20190;-64
2023/03/02 00:07:44;;;;;;;24.08;12.82;;;1.80;92.50;;;;;;2076106;28;20213;-64
2023/03/02 00:08:50;;;;;;;22.73;12.63;;;1.90;92.50;;;;;;2085477;28;20177;-64
2023/03/02 00:09:55;;;;;;;22.70;12.57;;;1.90;92.30;;;;;;2085550;28;20191;-64
2023/03/02 00:11:01;;;;;;;23.08;12.52;;;1.90;92.10;;;;;;2085396;28;20203;-63
2023/03/02 00:12:06;;;;;;;23.90;12.20;;;2.00;91.80;;;;;;2072781;28;20757;-63
2023/03/02 00:13:11;;;;;;;25.48;12.45;;;2.00;91.90;;;;;;2068897;28;20186;-64
2023/03/02 00:14:15;;;;;;;24.83;13.80;;;1.90;92.00;;;;;;2069483;28;20196;-63
2023/03/02 00:15:21;;;;;;;28.60;14.52;;;1.70;92.50;;;;;;2077683;28;20766;-63
2023/03/02 00:16:26;;;;;;;23.45;12.88;;;1.70;92.80;;;;;;2076759;28;20189;-64
2023/03/02 00:17:32;;;;;;;22.58;13.23;;;1.60;93.40;;;;;;2073295;28;20192;-64
2023/03/02 00:18:37;;;;;;;24.42;13.07;;;1.50;93.20;;;;;;2075951;28;20260;-65
2023/03/02 00:19:43;;;;;;;24.48;12.05;;;1.50;93.40;;;;;;2069799;28;20190;-62
2023/03/02 00:20:49;;;;;;;23.40;11.98;;;1.50;93.70;;;;;;2085420;28;20218;-64
2023/03/02 00:21:54;;;;;;;24.38;12.45;;;1.50;93.80;;;;;;2085307;28;20652;-63
2023/03/02 00:23:00;;;;;;;24.30;12.52;;;1.60;93.60;;;;;;2084773;28;20547;-64
2023/03/02 00:24:05;;;;;;;26.95;12.50;;;1.60;93.60;;;;;;2084807;28;20219;-63
2023/03/02 00:25:12;;;;;;;25.40;13.50;;;1.70;93.90;;;;;;2081120;28;20741;-63
2023/03/02 00:26:15;;;;;;;22.85;12.45;;;1.80;93.10;;;;;;2084734;28;20195;-63
2023/03/02 00:27:22;;;;;;;24.35;13.70;;;1.90;92.70;;;;;;2084817;28;20560;-63
2023/03/02 00:28:28;;;;;;;23.00;13.40;;;2.00;92.40;;;;;;2076421;28;20198;-63
2023/03/02 00:29:33;;;;;;;23.33;13.80;;;1.90;92.00;;;;;;2077383;28;20788;-63
2023/03/02 00:30:39;;;;;;;21.90;13.00;;;1.80;92.60;;;;;;2081448;28;20194;-64
2023/03/02 00:31:44;;;;;;;23.05;12.77;;;1.70;92.90;;;;;;2075945;28;20272;-65
2023/03/02 00:32:49;;;;;;;24.45;12.57;;;1.80;93.20;;;;;;2077870;28;20185;-64
2023/03/02 00:33:54;;;;;;;24.10;13.52;;;1.80;93.00;;;;;;2085498;28;20181;-64
2023/03/02 00:35:00;;;;;;;25.50;12.73;;;1.90;92.80;;;;;;2085362;28;20184;-64
2023/03/02 00:36:05;;;;;;;22.67;12.75;;;1.80;92.60;;;;;;2081383;28;20215;-64
2023/03/02 00:37:09;;;;;;;26.35;13.90;;;1.80;92.60;;;;;;2084789;28;20758;-64
2023/03/02 00:38:15;;;;;;;25.48;13.20;;;1.80;92.60;;;;;;2084797;28;20577;-64
2023/03/02 00:39:20;;;;;;;25.75;13.68;;;1.70;92.90;;;;;;2076644;28;20575;-64
2023/03/02 00:40:26;;;;;;;22.92;12.82;;;1.70;93.00;;;;;;2073152;28;20279;-64
2023/03/02 00:41:31;;;;;;;24.60;12.70;;;1.80;92.90;;;;;;2072864;28;20198;-63
2023/03/02 00:42:37;;;;;;;22.75;12.95;;;1.80;92.90;;;;;;2077249;28;20183;-64
2023/03/02 00:43:42;;;;;;;25.88;13.35;;;1.90;93.00;;;;;;2085380;28;20192;-64
2023/03/02 00:44:48;;;;;;;23.90;13.13;;;1.90;92.70;;;;;;2085458;28;20219;-63
2023/03/02 00:45:54;;;;;;;23.92;12.95;;;1.90;92.70;;;;;;2085353;28;20181;-64
2023/03/02 00:46:59;;;;;;;24.95;13.07;;;1.80;93.40;;;;;;2084475;28;20177;-64
2023/03/02 00:48:05;;;;;;;28.52;14.45;;;1.70;93.20;;;;;;2081659;28;20187;-64
2023/03/02 00:49:11;;;;;;;25.63;14.52;;;1.70;93.60;;;;;;2080197;28;20193;-64
2023/03/02 00:50:15;;;;;;;24.60;13.63;;;1.70;93.80;;;;;;2086709;28;20738;-64
2023/03/02 00:51:21;;;;;;;25.92;13.65;;;1.60;93.70;;;;;;2084690;28;20223;-64
2023/03/02 00:52:29;;;;;;;23.50;12.95;;;1.50;94.00;;;;;;2085334;28;20593;-63
2023/03/02 00:53:34;;;;;;;25.17;13.73;;;1.50;94.20;;;;;;2085347;28;20623;-64
2023/03/02 00:54:39;;;;;;;25.27;13.85;;;1.60;94.10;;;;;;2076052;28;20696;-64
2023/03/02 00:55:53;;;;;;;25.70;13.05;;;1.50;94.00;;;;;;2075822;28;20210;-63
2023/03/02 00:56:57;;;;;;;25.38;13.50;;;1.50;94.20;;;;;;2076445;28;20583;-64
2023/03/02 00:58:03;;;;;;;25.98;13.48;;;1.60;94.20;;;;;;2086046;28;20309;-64
2023/03/02 00:59:29;;;;;;;28.48;13.70;;;1.60;94.10;;;;;;2086719;28;20223;-63
2023/03/02 01:00:36;;;;;;;23.85;12.70;;;1.50;94.30;;;;;;2083784;28;20192;-64
2023/03/02 01:01:42;;;;;;;24.75;13.38;;;1.50;94.50;;;;;;2077283;28;20207;-64
2023/03/02 01:02:49;;;;;;;22.67;12.60;;;1.50;94.70;;;;;;2066308;28;20185;-64
2023/03/02 01:03:55;;;;;;;26.70;15.10;;;1.50;94.70;;;;;;2069599;28;20202;-63
2023/03/02 01:05:00;;;;;;;29.25;13.57;;;1.50;94.70;;;;;;2082836;28;20181;-64
2023/03/02 01:06:05;;;;;;;26.00;13.63;;;1.50;94.70;;;;;;2086060;28;20186;-64
2023/03/02 01:07:16;;;;;;;25.63;13.43;;;1.40;94.90;;;;;;2077210;28;20201;-63
2023/03/02 01:08:23;;;;;;;24.52;14.00;;;1.40;95.00;;;;;;2069273;28;20202;-63
2023/03/02 01:09:30;;;;;;;26.58;14.05;;;1.30;95.30;;;;;;2079498;28;20205;-64
2023/03/02 01:10:37;;;;;;;26.48;13.38;;;1.20;95.40;;;;;;2078108;28;20187;-63
2023/03/02 01:11:42;;;;;;;26.08;13.57;;;1.20;95.90;;;;;;2079471;28;20720;-63
2023/03/02 01:12:48;;;;;;;24.27;13.73;;;1.20;96.00;;;;;;2086220;28;20199;-64
2023/03/02 01:13:54;;;;;;;27.45;14.48;;;1.20;96.10;;;;;;2086135;28;20196;-63
2023/03/02 01:15:00;;;;;;;25.85;14.05;;;1.20;96.30;;;;;;2077296;28;20224;-64
2023/03/02 01:16:04;;;;;;;26.10;13.10;;;1.20;96.30;;;;;;2077623;28;20984;-64
2023/03/02 01:17:10;;;;;;;25.27;13.68;;;1.30;96.30;;;;;;2085740;28;20190;-64
2023/03/02 01:18:15;;;;;;;26.63;14.52;;;1.40;96.10;;;;;;2085950;28;20208;-64
2023/03/02 01:19:21;;;;;;;25.75;13.48;;;1.30;95.70;;;;;;2086115;28;20190;-63
2023/03/02 01:20:27;;;;;;;26.42;13.15;;;1.30;95.70;;;;;;2083109;28;20196;-64
2023/03/02 01:21:33;;;;;;;24.85;14.20;;;1.40;95.40;;;;;;2086256;28;20671;-64
2023/03/02 01:22:39;;;;;;;27.35;13.32;;;1.40;95.30;;;;;;2082417;28;20217;-64
2023/03/02 01:23:44;;;;;;;26.58;14.27;;;1.40;95.30;;;;;;2086159;28;20648;-64
2023/03/02 01:24:50;;;;;;;28.02;13.95;;;1.50;95.30;;;;;;2086487;28;20204;-64
2023/03/02 01:25:56;;;;;;;28.70;14.18;;;1.50;95.20;;;;;;2086830;28;20216;-64
2023/03/02 01:27:02;;;;;;;26.55;13.82;;;1.50;95.00;;;;;;2086947;28;20272;-64
2023/03/02 01:28:04;;;;;;;25.98;13.85;;;1.60;94.90;;;;;;2085761;28;20205;-64
2023/03/02 01:29:10;;;;;;;26.50;14.27;;;1.50;95.00;;;;;;2085884;28;20660;-63
2023/03/02 01:30:16;;;;;;;28.33;13.02;;;1.50;95.20;;;;;;2086003;28;20568;-64
2023/03/02 01:31:23;;;;;;;29.75;14.43;;;1.50;95.40;;;;;;2086671;28;20577;-64
2023/03/02 01:32:29;;;;;;;25.60;13.95;;;1.50;95.30;;;;;;2077901;28;20670;-64
2023/03/02 01:33:34;;;;;;;26.13;14.38;;;1.50;95.20;;;;;;2075873;28;20186;-64
2023/03/02 01:34:40;;;;;;;31.23;14.57;;;1.50;95.00;;;;;;2086068;28;20189;-64
2023/03/02 01:35:47;;;;;;;27.02;13.88;;;1.50;95.20;;;;;;2082695;28;20268;-64
2023/03/02 01:36:52;;;;;;;27.52;15.07;;;1.40;95.30;;;;;;2078295;28;20591;-63
2023/03/02 01:37:58;;;;;;;28.30;14.45;;;1.30;95.60;;;;;;2086034;28;20181;-64
2023/03/02 01:39:04;;;;;;;24.23;13.77;;;1.40;95.80;;;;;;2086650;28;20197;-63
2023/03/02 01:40:12;;;;;;;26.48;13.85;;;1.50;96.00;;;;;;2077997;28;20200;-64
2023/03/02 01:41:18;;;;;;;25.20;14.15;;;1.50;96.10;;;;;;2074395;28;20247;-64
2023/03/02 01:42:24;;;;;;;27.55;13.93;;;1.30;96.50;;;;;;2078694;28;20218;-64
2023/03/02 01:43:30;;;;;;;22.67;12.55;;;1.20;96.40;;;;;;2082412;28;20673;-64
2023/03/02 01:44:45;;;;;;;23.38;12.95;;;1.20;96.50;;;;;;2086062;28;20728;-64
2023/03/02 01:46:13;;;;;;;28.20;13.90;;;1.30;96.50;;;;;;2083350;28;20186;-63
2023/03/02 01:47:34;;;;;;;26.35;13.52;;;1.30;96.40;;;;;;2083817;28;20254;-64
2023/03/02 01:48:51;;;;;;;28.23;13.75;;;1.40;96.30;;;;;;2084094;28;20559;-64
2023/03/02 01:50:22;;;;;;;24.60;13.77;;;1.40;96.10;;;;;;2074590;28;20189;-64
2023/03/02 01:51:34;;;;;;;25.75;14.20;;;1.50;95.70;;;;;;2080954;28;20173;-63
2023/03/02 01:52:39;;;;;;;27.48;13.57;;;1.40;95.70;;;;;;2074583;28;20266;-63
2023/03/02 01:53:50;;;;;;;29.27;13.73;;;1.40;95.80;;;;;;2070118;28;20198;-63
2023/03/02 01:55:01;;;;;;;26.80;14.20;;;1.40;95.90;;;;;;2076731;28;20228;-64
2023/03/02 01:56:05;;;;;;;23.33;13.38;;;1.40;96.40;;;;;;2068883;28;20190;-63
2023/03/02 01:57:10;;;;;;;26.00;14.25;;;1.30;96.00;;;;;;2071034;28;20711;-63
2023/03/02 01:58:16;;;;;;;23.33;13.45;;;1.30;96.00;;;;;;2077589;28;20567;-63
2023/03/02 01:59:22;;;;;;;27.67;15.40;;;1.30;96.20;;;;;;2075097;28;20617;-64
2023/03/02 02:00:32;;;;;;;27.98;14.88;;;1.20;96.50;;;;;;2085796;28;20854;-63
2023/03/02 02:01:37;;;;;;;26.42;13.80;;;1.20;97.00;;;;;;2086041;28;20190;-63
2023/03/02 02:02:40;;;;;;;27.08;13.68;;;1.10;97.00;;;;;;2077623;28;20237;-63
2023/03/02 02:03:49;;;;;;;25.38;14.80;;;1.10;97.20;;;;;;2078276;28;20182;-63
2023/03/02 02:04:55;;;;;;;26.77;14.43;;;1.00;97.40;;;;;;2085674;28;20187;-64
2023/03/02 02:06:28;;;;;;;24.80;13.50;;;1.10;97.50;;;;;;2076774;28;20197;-64
2023/03/02 02:07:34;;;;;;;28.33;14.63;;;1.20;97.30;;;;;;2073169;28;20189;-63
2023/03/02 02:08:40;;;;;;;24.95;13.40;;;1.20;96.70;;;;;;2076518;28;20273;-63
2023/03/02 02:09:49;;;;;;;27.27;13.52;;;1.30;96.50;;;;;;2082665;28;20667;-64
2023/03/02 02:10:55;;;;;;;23.10;13.68;;;1.30;96.50;;;;;;2085180;28;20220;-63
2023/03/02 02:12:01;;;;;;;26.85;14.38;;;1.30;96.50;;;;;;2081853;28;20184;-64
2023/03/02 02:13:09;;;;;;;27.45;13.88;;;1.30;96.60;;;;;;2085700;28;20188;-64
2023/03/02 02:14:15;;;;;;;28.23;14.23;;;1.20;97.00;;;;;;2081869;28;20176;-64
2023/03/02 02:15:21;;;;;;;25.80;14.52;;;1.10;97.20;;;;;;2076684;28;20253;-64
2023/03/02 02:16:30;;;;;;;27.20;15.75;;;1.10;97.60;;;;;;2070301;28;20601;-64
2023/03/02 02:17:36;;;;;;;25.85;15.18;;;1.10;97.50;;;;;;2071362;28;20174;-63
2023/03/02 02:18:43;;;;;;;29.55;15.40;;;1.00;98.00;;;;;;2078779;28;20181;-64
2023/03/02 02:20:09;;;;;;;29.10;14.77;;;0.80;98.70;;;;;;2085806;28;20743;-63
2023/03/02 02:21:15;;;;;;;27.33;13.60;;;0.80;99.10;;;;;;2084026;28;20234;-64
2023/03/02 02:22:39;;;;;;;26.58;14.52;;;0.80;99.00;;;;;;2077224;28;20683;-64
2023/03/02 02:23:57;;;;;;;25.85;14.30;;;1.00;98.60;;;;;;2068737;28;20185;-63
2023/03/02 02:25:15;;;;;;;26.45;14.32;;;0.90;98.70;;;;;;2080216;28;20196;-64
2023/03/02 02:26:33;;;;;;;26.50;14.82;;;0.90;98.70;;;;;;2086636;28;20219;-64
2023/03/02 02:27:40;;;;;;;28.33;14.80;;;0.90;98.80;;;;;;2084131;28;20228;-64
2023/03/02 02:29:06;;;;;;;30.65;14.63;;;0.90;98.60;;;;;;2082221;28;20177;-63
2023/03/02 02:30:12;;;;;;;24.15;14.02;;;1.00;98.50;;;;;;2073760;28;20271;-63
2023/03/02 02:31:25;;;;;;;31.55;14.35;;;1.10;98.40;;;;;;2077968;28;20229;-64
2023/03/02 02:32:35;;;;;;;28.48;14.93;;;1.10;98.30;;;;;;2074708;28;20196;-63
2023/03/02 02:33:41;;;;;;;27.77;15.35;;;1.10;97.80;;;;;;2062122;28;20207;-63
2023/03/02 02:34:53;;;;;;;29.90;14.07;;;1.10;97.90;;;;;;2062877;28;20214;-65
2023/03/02 02:36:06;;;;;;;28.38;14.63;;;1.10;97.60;;;;;;2067470;28;20189;-63
2023/03/02 02:37:19;;;;;;;30.83;15.35;;;1.10;98.10;;;;;;2076633;28;20264;-63
2023/03/02 02:38:25;;;;;;;27.92;14.55;;;1.20;98.20;;;;;;2066982;28;20184;-63
2023/03/02 02:39:36;;;;;;;29.88;13.98;;;1.10;98.00;;;;;;2065008;28;20193;-63
2023/03/02 02:40:50;;;;;;;25.80;14.45;;;1.20;97.70;;;;;;2070014;28;20193;-63
2023/03/02 02:41:56;;;;;;;31.27;15.50;;;1.20;97.70;;;;;;2077337;28;20272;-63
2023/03/02 02:43:02;;;;;;;29.27;15.95;;;1.20;97.40;;;;;;2070799;28;20218;-63
2023/03/02 02:44:14;;;;;;;28.02;14.98;;;1.20;97.50;;;;;;2074221;28;20188;-63
2023/03/02 02:45:25;;;;;;;27.73;15.48;;;1.20;97.50;;;;;;2085319;28;20178;-65
2023/03/02 02:46:32;;;;;;;30.50;16.13;;;1.30;97.50;;;;;;2082287;28;20228;-63
2023/03/02 02:47:38;;;;;;;28.05;15.07;;;1.30;97.40;;;;;;2084638;28;22139;-63
2023/03/02 02:48:43;;;;;;;28.60;14.43;;;1.20;97.40;;;;;;2086390;28;20185;-64
2023/03/02 02:49:52;;;;;;;28.55;14.43;;;1.20;97.90;;;;;;2086864;28;20179;-63
2023/03/02 02:50:59;;;;;;;28.15;15.93;;;1.00;98.10;;;;;;2083146;28;20214;-63
2023/03/02 02:52:06;;;;;;;29.13;14.55;;;1.10;98.30;;;;;;2085600;28;20211;-63
2023/03/02 02:53:47;;;;;;;29.05;15.20;;;1.10;98.10;;;;;;2081942;28;20584;-64
2023/03/02 02:54:56;;;;;;;27.88;14.60;;;1.10;98.40;;;;;;2072229;28;20241;-63
2023/03/02 02:56:03;;;;;;;25.52;14.40;;;1.10;98.60;;;;;;2065632;28;20186;-63
2023/03/02 02:57:11;;;;;;;29.13;15.15;;;1.10;98.30;;;;;;2067193;28;20194;-63
2023/03/02 02:58:45;;;;;;;30.17;15.02;;;1.10;98.50;;;;;;2076232;28;20248;-63
2023/03/02 02:59:53;;;;;;;27.30;14.85;;;1.00;98.80;;;;;;2071452;28;20634;-63
2023/03/02 03:00:59;;;;;;;30.67;14.85;;;0.90;99.10;;;;;;2068828;28;20221;-63
2023/03/02 03:02:04;;;;;;;29.77;14.38;;;0.90;99.20;;;;;;2084669;28;20235;-63
2023/03/02 03:03:31;;;;;;;26.80;15.13;;;0.90;99.30;;;;;;2066838;28;20194;-63
2023/03/02 03:04:33;;;;;;;29.67;15.18;;;1.00;99.00;;;;;;2074289;28;20283;-64
2023/03/02 03:05:39;;;;;;;33.25;14.98;;;0.80;99.10;;;;;;2087654;28;20210;-63
2023/03/02 03:07:03;;;;;;;29.48;14.80;;;0.90;99.50;;;;;;2087222;28;20213;-64
2023/03/02 03:08:08;;;;;;;26.02;14.05;;;0.90;99.50;;;;;;2078343;28;20224;-63
2023/03/02 03:09:10;;;;;;;27.00;14.55;;;0.80;99.50;;;;;;2070769;28;20272;-64
2023/03/02 03:10:33;;;;;;;26.83;14.55;;;0.80;99.70;;;;;;2071226;28;20180;-63
2023/03/02 03:11:42;;;;;;;29.85;14.77;;;0.90;99.80;;;;;;2073745;28;20257;-63
2023/03/02 03:12:49;;;;;;;27.33;13.88;;;0.90;99.60;;;;;;2064984;28;20179;-63
2023/03/02 03:14:16;;;;;;;29.58;14.68;;;1.00;99.40;;;;;;2065865;28;20198;-64
2023/03/02 03:15:22;;;;;;;26.73;13.85;;;1.10;99.00;;;;;;2083738;28;20219;-63
2023/03/02 03:16:29;;;;;;;27.25;14.90;;;1.10;98.70;;;;;;2089004;28;20169;-63
2023/03/02 03:17:35;;;;;;;27.23;14.70;;;1.10;98.60;;;;;;2079019;28;20255;-63
2023/03/02 03:18:44;;;;;;;28.95;14.27;;;1.20;98.70;;;;;;2080622;28;20264;-64
2023/03/02 03:19:49;;;;;;;29.35;16.25;;;1.10;98.90;;;;;;2077703;28;20177;-63
2023/03/02 03:20:55;;;;;;;24.88;14.40;;;1.10;98.70;;;;;;2080730;28;20247;-63
2023/03/02 03:22:01;;;;;;;25.67;14.25;;;1.10;98.80;;;;;;2087740;28;20187;-63
2023/03/02 03:23:03;;;;;;;29.63;15.68;;;1.00;98.50;;;;;;2083584;28;20183;-63
2023/03/02 03:24:09;;;;;;;27.90;14.27;;;1.10;98.70;;;;;;2090270;28;20323;-63
2023/03/02 03:25:15;;;;;;;29.13;14.98;;;1.10;98.70;;;;;;2079343;28;20197;-63
2023/03/02 03:26:21;;;;;;;29.25;15.48;;;1.10;98.60;;;;;;2080980;28;20709;-63
2023/03/02 03:27:27;;;;;;;27.80;14.57;;;1.20;98.70;;;;;;2087274;28;20185;-62
2023/03/02 03:28:34;;;;;;;28.95;16.10;;;1.20;98.50;;;;;;2083808;28;20208;-64
2023/03/02 03:29:45;;;;;;;28.63;14.85;;;1.20;98.20;;;;;;2089459;28;20209;-64
2023/03/02 03:30:51;;;;;;;29.67;15.07;;;1.00;98.60;;;;;;2083907;28;20208;-64
2023/03/02 03:31:58;;;;;;;27.20;14.57;;;1.10;99.20;;;;;;2086888;28;20184;-64
2023/03/02 03:33:03;;;;;;;28.20;15.70;;;1.10;99.10;;;;;;2074994;28;20199;-64
2023/03/02 03:34:09;;;;;;;29.42;16.58;;;1.10;99.00;;;;;;2079431;28;20233;-64
2023/03/02 03:35:14;;;;;;;30.85;15.70;;;1.00;99.20;;;;;;2061432;28;20194;-64
2023/03/02 03:36:20;;;;;;;32.05;15.13;;;1.00;99.20;;;;;;2063159;28;20191;-64
2023/03/02 03:37:25;;;;;;;28.00;15.13;;;1.00;99.30;;;;;;2077182;28;20209;-64
2023/03/02 03:38:31;;;;;;;28.25;15.43;;;1.00;99.40;;;;;;2074563;28;20819;-64
2023/03/02 03:39:37;;;;;;;27.83;14.98;;;1.00;99.20;;;;;;2080797;28;20204;-64
2023/03/02 03:40:42;;;;;;;28.45;15.40;;;1.00;99.10;;;;;;2083175;28;20193;-64
2023/03/02 03:41:47;;;;;;;31.08;15.52;;;0.90;99.40;;;;;;2086846;28;20190;-65
2023/03/02 03:42:53;;;;;;;30.00;15.90;;;0.90;99.70;;;;;;2091036;28;20232;-64
2023/03/02 03:43:58;;;;;;;32.25;15.73;;;0.90;99.70;;;;;;2078645;28;20292;-64
2023/03/02 03:45:06;;;;;;;29.67;16.60;;;1.00;99.70;;;;;;2075946;28;20174;-64
2023/03/02 03:46:09;;;;;;;33.42;15.60;;;1.00;99.40;;;;;;2083175;28;20252;-63
2023/03/02 03:47:14;;;;;;;26.88;14.57;;;1.00;99.10;;;;;;2077793;28;20291;-64
2023/03/02 03:48:19;;;;;;;34.15;15.73;;;1.10;99.00;;;;;;2078786;28;20208;-64
2023/03/02 03:49:25;;;;;;;28.88;15.57;;;1.10;99.10;;;;;;2088065;28;20207;-64
2023/03/02 03:50:31;;;;;;;28.08;16.10;;;1.10;99.20;;;;;;2078914;28;20218;-64
2023/03/02 03:51:36;;;;;;;31.42;16.60;;;1.10;99.20;;;;;;2076897;28;20217;-64
2023/03/02 03:52:41;;;;;;;29.27;15.25;;;1.00;99.50;;;;;;2087525;28;20219;-64
2023/03/02 03:53:58;;;;;;;32.67;16.20;;;0.90;99.80;;;;;;2087781;28;20192;-63
2023/03/02 03:55:04;;;;;;;32.92;15.50;;;0.90;99.80;;;;;;2088425;28;20196;-65
2023/03/02 03:56:09;;;;;;;31.17;16.52;;;0.80;99.90;;;;;;2074889;28;20241;-64
2023/03/02 03:57:14;;;;;;;27.77;14.80;;;0.90;99.90;;;;;;2077412;28;20185;-64
2023/03/02 03:58:19;;;;;;;28.30;15.27;;;0.90;99.70;;;;;;2090308;28;20577;-63
2023/03/02 03:59:26;;;;;;;29.40;15.27;;;0.90;99.90;;;;;;2085810;28;20311;-64
2023/03/02 04:00:31;;;;;;;29.08;15.43;;;0.90;99.90;;;;;;2087926;28;20213;-64
2023/03/02 04:01:43;;;;;;;25.23;14.30;;;0.90;99.90;;;;;;2085142;28;20199;-63
2023/03/02 04:02:49;;;;;;;28.40;16.05;;;0.90;99.80;;;;;;2085616;28;20280;-64
2023/03/02 04:03:55;;;;;;;30.25;15.43;;;0.80;99.90;;;;;;2085768;28;20177;-64
2023/03/02 04:05:05;;;;;;;28.33;14.80;;;0.80;99.90;;;;;;2085824;28;20192;-64
2023/03/02 04:06:17;;;;;;;34.58;17.40;;;0.90;99.90;;;;;;2073257;28;20194;-64
2023/03/02 04:07:23;;;;;;;32.58;16.65;;;0.90;99.90;;;;;;2079159;28;20245;-63
2023/03/02 04:08:28;;;;;;;30.27;16.70;;;0.70;99.90;;;;;;2085506;28;20181;-64
2023/03/02 04:09:36;;;;;;;29.35;15.88;;;0.70;99.90;;;;;;2085493;28;20665;-64
2023/03/02 04:10:42;;;;;;;33.80;18.15;;;0.70;99.90;;;;;;2084761;28;20200;-64
2023/03/02 04:11:51;;;;;;;30.02;16.15;;;0.70;99.90;;;;;;2084758;28;20181;-63
2023/03/02 04:12:54;;;;;;;31.85;16.08;;;0.70;99.90;;;;;;2072929;28;20690;-64
2023/03/02 04:13:59;;;;;;;30.17;15.57;;;0.70;99.90;;;;;;2075227;28;20685;-64
2023/03/02 04:15:06;;;;;;;34.70;16.38;;;0.80;99.90;;;;;;2085049;28;20665;-64
2023/03/02 04:16:09;;;;;;;35.22;17.20;;;0.90;99.90;;;;;;2076528;28;20177;-64
2023/03/02 04:17:09;;;;;;;31.30;15.67;;;0.90;99.90;;;;;;2077276;28;20185;-64
2023/03/02 04:18:15;;;;;;;29.02;16.05;;;0.90;99.90;;;;;;2084784;28;20184;-63
2023/03/02 04:19:21;;;;;;;30.83;15.25;;;0.90;99.90;;;;;;2084800;28;20235;-63
2023/03/02 04:20:27;;;;;;;29.63;15.88;;;0.90;99.90;;;;;;2084719;28;20209;-64
2023/03/02 04:21:32;;;;;;;33.35;16.92;;;0.90;99.90;;;;;;2085643;28;20273;-64
2023/03/02 04:22:37;;;;;;;31.92;17.27;;;0.90;99.90;;;;;;2085371;28;20205;-64
2023/03/02 04:23:43;;;;;;;29.23;15.38;;;0.90;99.90;;;;;;2081181;28;20227;-64
2023/03/02 04:24:49;;;;;;;29.55;15.88;;;0.90;99.90;;;;;;2076002;28;20204;-64
2023/03/02 04:25:55;;;;;;;31.63;16.27;;;1.00;99.90;;;;;;2058042;28;20191;-64
2023/03/02 04:27:01;;;;;;;30.58;16.08;;;1.00;99.90;;;;;;2071223;28;20198;-63
2023/03/02 04:28:04;;;;;;;33.33;15.90;;;0.90;99.90;;;;;;2085123;28;20196;-63
2023/03/02 04:29:11;;;;;;;32.92;16.15;;;0.80;99.90;;;;;;2081218;28;20184;-64
2023/03/02 04:30:19;;;;;;;30.85;16.05;;;0.80;99.90;;;;;;2084960;28;20219;-63
2023/03/02 04:31:21;;;;;;;32.95;15.68;;;0.80;99.90;;;;;;2086945;28;20204;-64
2023/03/02 04:32:26;;;;;;;28.77;16.25;;;0.90;99.90;;;;;;2088184;28;20745;-64
2023/03/02 04:33:32;;;;;;;35.92;16.25;;;1.00;99.90;;;;;;2079307;28;20295;-64
2023/03/02 04:34:37;;;;;;;28.50;15.40;;;0.90;99.90;;;;;;2076173;28;20287;-64
2023/03/02 04:35:42;;;;;;;27.10;15.80;;;0.90;99.90;;;;;;2087234;28;20181;-64
2023/03/02 04:36:48;;;;;;;29.58;14.85;;;0.90;99.90;;;;;;2087891;28;20184;-64
2023/03/02 04:37:54;;;;;;;32.63;16.13;;;1.00;99.90;;;;;;2087745;28;20259;-64
2023/03/02 04:38:59;;;;;;;32.45;15.57;;;0.90;99.90;;;;;;2088062;28;20660;-64
2023/03/02 04:40:07;;;;;;;34.72;16.90;;;0.90;99.90;;;;;;2084272;28;20177;-64
2023/03/02 04:41:09;;;;;;;33.28;16.33;;;0.90;99.90;;;;;;2078241;28;20208;-64
2023/03/02 04:42:15;;;;;;;30.80;17.25;;;0.90;99.90;;;;;;2079992;28;20228;-64
2023/03/02 04:43:20;;;;;;;34.92;16.67;;;0.80;99.90;;;;;;2079088;28;20188;-63
2023/03/02 04:44:26;;;;;;;29.17;15.60;;;0.90;99.90;;;;;;2080460;28;20719;-63
2023/03/02 04:45:31;;;;;;;33.67;16.33;;;1.00;99.90;;;;;;2087203;28;20562;-63
2023/03/02 04:46:37;;;;;;;33.85;16.05;;;1.00;99.90;;;;;;2087248;28;20199;-64
2023/03/02 04:47:42;;;;;;;29.95;16.23;;;1.10;99.90;;;;;;2083235;28;20191;-64
2023/03/02 04:48:48;;;;;;;32.53;16.83;;;1.10;99.90;;;;;;2087200;28;20191;-64
2023/03/02 04:49:53;;;;;;;29.42;15.73;;;1.10;99.90;;;;;;2087279;28;20191;-64
2023/03/02 04:50:59;;;;;;;27.85;15.68;;;1.20;99.80;;;;;;2086769;28;20217;-63
2023/03/02 04:52:05;;;;;;;30.88;16.02;;;1.20;99.70;;;;;;2087262;28;20184;-64
2023/03/02 04:53:10;;;;;;;27.58;15.70;;;1.10;99.70;;;;;;2083965;28;20187;-63
2023/03/02 04:54:25;;;;;;;32.95;16.83;;;1.10;99.80;;;;;;2089223;28;20631;-64
2023/03/02 04:55:28;;;;;;;30.70;16.20;;;1.10;99.90;;;;;;2084125;28;20239;-64
2023/03/02 04:56:29;;;;;;;32.10;17.60;;;1.20;99.90;;;;;;2087068;28;20185;-64
2023/03/02 04:57:34;;;;;;;27.80;15.68;;;1.00;99.90;;;;;;2078209;28;20178;-64
2023/03/02 04:58:39;;;;;;;34.60;17.10;;;0.90;99.90;;;;;;2080204;28;20726;-65
2023/03/02 04:59:45;;;;;;;28.02;15.18;;;0.90;99.90;;;;;;2087895;28;20675;-64
2023/03/02 05:00:50;;;;;;;31.25;16.30;;;0.80;99.90;;;;;;2083585;28;20298;-64
2023/03/02 05:01:59;;;;;;;32.10;16.85;;;0.80;99.90;;;;;;2087013;28;20226;-64
2023/03/02 05:03:02;;;;;;;31.38;15.30;;;0.80;99.90;;;;;;2087454;28;20181;-64
2023/03/02 05:04:04;;;;;;;32.85;16.55;;;0.80;99.90;;;;;;2078888;28;20583;-64
2023/03/02 05:05:21;;;;;;;31.67;15.90;;;0.90;99.90;;;;;;2079706;28;20236;-64
2023/03/02 05:06:26;;;;;;;33.35;16.77;;;0.80;99.90;;;;;;2084993;28;20180;-63
2023/03/02 05:07:29;;;;;;;30.73;16.17;;;0.50;99.90;;;;;;2086841;28;20189;-63
2023/03/02 05:08:34;;;;;;;33.28;17.65;;;0.50;99.90;;;;;;2083701;28;20193;-64
2023/03/02 05:09:40;;;;;;;32.60;16.40;;;0.50;99.90;;;;;;2087118;28;20184;-63
2023/03/02 05:10:45;;;;;;;32.03;16.58;;;0.60;99.90;;;;;;2087639;28;20189;-64
2023/03/02 05:11:51;;;;;;;31.58;16.42;;;0.70;99.90;;;;;;2088087;28;20203;-64
2023/03/02 05:13:03;;;;;;;30.95;16.30;;;0.70;99.90;;;;;;2087728;28;20182;-64
2023/03/02 05:14:09;;;;;;;30.63;16.50;;;0.80;99.90;;;;;;2087125;28;20177;-64
2023/03/02 05:15:14;;;;;;;34.83;17.30;;;0.70;99.90;;;;;;2087150;28;20227;-64
2023/03/02 05:16:21;;;;;;;33.33;17.08;;;0.80;99.90;;;;;;2079130;28;20181;-63
2023/03/02 05:17:25;;;;;;;30.33;16.45;;;0.80;99.90;;;;;;2079736;28;20195;-64
2023/03/02 05:18:31;;;;;;;33.50;17.95;;;0.80;99.90;;;;;;2083878;28;20184;-64
2023/03/02 05:19:36;;;;;;;36.88;17.92;;;0.80;99.90;;;;;;2087257;28;20200;-64
2023/03/02 05:20:42;;;;;;;28.88;16.30;;;0.70;99.90;;;;;;2087920;28;20708;-64
2023/03/02 05:21:47;;;;;;;32.13;17.00;;;0.70;99.90;;;;;;2088199;28;20244;-63
2023/03/02 05:22:56;;;;;;;37.53;17.38;;;0.60;99.90;;;;;;2079149;28;20173;-63
2023/03/02 05:23:58;;;;;;;33.30;17.02;;;0.60;99.90;;;;;;2076112;28;20217;-63
2023/03/02 05:25:05;;;;;;;35.80;17.85;;;0.60;99.90;;;;;;2090300;28;20570;-63
2023/03/02 05:26:10;;;;;;;32.30;16.83;;;0.60;99.90;;;;;;2083776;28;20330;-63
2023/03/02 05:27:14;;;;;;;32.08;17.75;;;0.50;99.90;;;;;;2070872;28;20691;-64
2023/03/02 05:28:23;;;;;;;34.83;16.50;;;0.60;99.90;;;;;;2071372;28;20593;-64
2023/03/02 05:29:25;;;;;;;34.72;16.90;;;0.70;99.90;;;;;;2079261;28;20204;-64
2023/03/02 05:30:36;;;;;;;33.72;16.92;;;0.70;99.90;;;;;;2080279;28;20191;-64
2023/03/02 05:31:43;;;;;;;33.13;16.80;;;0.80;99.90;;;;;;2084815;28;20190;-64
2023/03/02 05:32:45;;;;;;;29.17;15.95;;;0.90;99.90;;;;;;2087267;28;20184;-64
2023/03/02 05:33:51;;;;;;;35.20;18.33;;;0.80;99.90;;;;;;2087906;28;20192;-64
2023/03/02 05:34:56;;;;;;;40.08;17.95;;;0.70;99.90;;;;;;2087825;28;20177;-64
2023/03/02 05:36:02;;;;;;;33.97;16.60;;;0.70;99.90;;;;;;2087493;28;20193;-64
2023/03/02 05:37:07;;;;;;;32.63;17.17;;;0.70;99.90;;;;;;2087004;28;20176;-64
2023/03/02 05:38:10;;;;;;;33.17;17.48;;;0.80;99.90;;;;;;2086586;28;20196;-64
2023/03/02 05:39:14;;;;;;;33.97;18.23;;;0.80;99.90;;;;;;2087441;28;20570;-63
2023/03/02 05:40:20;;;;;;;33.38;17.20;;;0.80;99.90;;;;;;2087797;28;20772;-63
2023/03/02 05:41:22;;;;;;;32.72;16.92;;;0.80;99.90;;;;;;2087665;28;20354;-64
2023/03/02 05:42:27;;;;;;;38.72;17.95;;;0.80;99.90;;;;;;2082158;28;20291;-64
2023/03/02 05:43:33;;;;;;;34.65;16.70;;;0.80;99.90;;;;;;2085358;28;20188;-64
2023/03/02 05:44:38;;;;;;;31.95;17.23;;;0.80;99.90;;;;;;2085673;28;20186;-64
2023/03/02 05:45:44;;;;;;;32.92;17.38;;;0.90;99.90;;;;;;2086362;28;20185;-63